createdAt,value
2024-02-17T00:03:37.173Z,14.97
2024-02-17T00:08:40.551Z,14.70
2024-02-17T00:13:45.972Z,15.33
2024-02-17T00:18:49.444Z,14.87
2024-02-17T00:23:52.647Z,16.60
2024-02-17T00:28:58.682Z,17.00
2024-02-17T00:34:01.977Z,17.03
2024-02-17T00:39:06.361Z,17.03
2024-02-17T00:44:10.936Z,17.13
2024-02-17T00:49:14.204Z,17.70
2024-02-17T00:54:17.758Z,15.57
2024-02-17T00:59:22.362Z,16.77
2024-02-17T01:04:25.681Z,16.00
2024-02-17T01:09:29.200Z,15.63
2024-02-17T01:14:34.110Z,15.17
2024-02-17T01:19:37.309Z,16.40
2024-02-17T01:24:40.616Z,15.60
2024-02-17T01:29:45.242Z,17.83
2024-02-17T01:34:48.355Z,16.30
2024-02-17T01:39:51.706Z,16.40
2024-02-17T01:44:56.398Z,16.97
2024-02-17T01:50:00.218Z,17.90
2024-02-17T01:55:05.170Z,18.43
2024-02-17T02:00:11.901Z,17.37
2024-02-17T02:05:15.608Z,18.50
2024-02-17T02:10:19.054Z,17.63
2024-02-17T02:15:29.891Z,19.77
2024-02-17T02:20:40.602Z,18.63
2024-02-17T02:25:52.135Z,19.80
2024-02-17T02:30:57.451Z,20.23
2024-02-17T02:36:00.606Z,21.27
2024-02-17T02:41:05.218Z,19.90
2024-02-17T02:46:08.751Z,19.13
2024-02-17T02:51:12.471Z,20.30
2024-02-17T02:56:17.280Z,20.47
2024-02-17T03:01:20.860Z,21.23
2024-02-17T03:06:25.352Z,20.93
2024-02-17T03:11:30.128Z,19.50
2024-02-17T03:16:33.330Z,21.47
2024-02-17T03:21:37.685Z,22.90
2024-02-17T03:26:42.997Z,23.17
2024-02-17T03:31:47.753Z,23.70
2024-02-17T03:36:51.216Z,24.67
2024-02-17T03:41:56.481Z,25.57
2024-02-17T03:46:59.696Z,24.13
2024-02-17T03:52:02.949Z,24.90
2024-02-17T03:57:07.555Z,24.93
2024-02-17T04:02:10.722Z,22.57
2024-02-17T04:07:13.936Z,22.43
2024-02-17T04:12:18.962Z,21.90
2024-02-17T04:17:22.384Z,21.63
2024-02-17T04:22:26.388Z,22.97
2024-02-17T04:27:31.088Z,22.93
2024-02-17T04:32:34.417Z,22.67
2024-02-17T04:37:38.428Z,21.57
2024-02-17T04:42:43.127Z,22.00
2024-02-17T04:47:46.425Z,21.80
2024-02-17T04:52:49.740Z,21.13
2024-02-17T04:57:54.957Z,21.40
2024-02-17T05:02:58.333Z,22.20
2024-02-17T05:08:01.600Z,23.23
2024-02-17T05:13:06.871Z,23.43
2024-02-17T05:18:10.304Z,24.77
2024-02-17T05:23:13.531Z,26.80
2024-02-17T05:28:18.093Z,27.70
2024-02-17T05:33:21.685Z,27.80
2024-02-17T05:38:25.055Z,29.17
2024-02-17T05:43:29.971Z,28.90
2024-02-17T05:48:33.288Z,29.40
2024-02-17T05:53:36.541Z,31.40
2024-02-17T05:58:41.095Z,28.67
2024-02-17T06:03:44.470Z,28.83
2024-02-17T06:08:47.609Z,29.97
2024-02-17T06:13:54.929Z,25.67
2024-02-17T06:19:16.536Z,26.30
2024-02-17T06:24:20.016Z,26.17
2024-02-17T06:29:24.665Z,27.07
2024-02-17T06:34:28.078Z,26.43
2024-02-17T06:39:31.629Z,26.37
2024-02-17T06:44:36.112Z,27.87
2024-02-17T06:49:39.577Z,26.77
2024-02-17T06:54:43.153Z,28.20
2024-02-17T06:59:47.702Z,27.80
2024-02-17T07:04:50.952Z,28.97
2024-02-17T07:09:54.271Z,26.77
2024-02-17T07:14:58.919Z,30.57
2024-02-17T07:20:02.246Z,36.50
2024-02-17T07:25:06.406Z,40.70
2024-02-17T07:30:12.279Z,39.10
2024-02-17T07:35:15.606Z,33.90
2024-02-17T07:40:19.115Z,31.43
2024-02-17T07:45:23.809Z,29.50
2024-02-17T07:50:27.241Z,30.27
2024-02-17T07:55:31.337Z,30.23
2024-02-17T08:00:36.066Z,28.80
2024-02-17T08:05:39.713Z,29.37
2024-02-17T08:10:43.113Z,27.30
2024-02-17T08:15:47.772Z,26.87
2024-02-17T08:20:52.222Z,27.57
2024-02-17T08:25:55.539Z,27.27
2024-02-17T08:31:00.165Z,28.33
2024-02-17T08:36:03.383Z,27.00
2024-02-17T08:41:06.690Z,26.80
2024-02-17T08:46:11.248Z,26.73
2024-02-17T08:51:14.487Z,26.60
2024-02-17T08:56:17.593Z,27.40
2024-02-17T09:01:22.175Z,27.83
2024-02-17T09:06:25.534Z,26.80
2024-02-17T09:11:28.774Z,27.00
2024-02-17T09:16:33.414Z,27.80
2024-02-17T09:21:37.511Z,26.67
2024-02-17T09:26:41.531Z,26.00
2024-02-17T09:31:46.585Z,24.33
2024-02-17T09:36:49.982Z,24.83
2024-02-17T09:41:53.137Z,24.57
2024-02-17T09:46:58.404Z,24.17
2024-02-17T09:52:02.404Z,23.10
2024-02-17T09:57:07.318Z,23.50
2024-02-17T10:02:13.134Z,21.13
2024-02-17T10:07:16.297Z,20.27
2024-02-17T10:12:19.613Z,20.30
2024-02-17T10:17:24.849Z,19.70
2024-02-17T10:22:28.048Z,21.23
2024-02-17T10:27:33.284Z,20.40
2024-02-17T10:32:38.427Z,19.07
2024-02-17T10:37:42.348Z,19.60
2024-02-17T10:42:47.977Z,20.20
2024-02-17T10:48:01.369Z,18.73
2024-02-17T10:53:11.232Z,18.67
2024-02-17T10:58:18.274Z,18.50
2024-02-17T11:03:25.698Z,17.90
2024-02-17T11:08:29.644Z,18.47
2024-02-17T11:13:33.148Z,16.57
2024-02-17T11:18:40.413Z,17.20
2024-02-17T11:23:44.356Z,16.57
2024-02-17T11:28:48.194Z,16.00
2024-02-17T11:33:55.152Z,16.33
2024-02-17T11:39:00.771Z,15.87
2024-02-17T11:44:04.888Z,16.23
2024-02-17T11:49:12.870Z,14.97
2024-02-17T11:54:16.733Z,13.77
2024-02-17T11:59:20.068Z,12.77
2024-02-17T12:04:24.704Z,12.53
2024-02-17T12:09:27.960Z,11.70
2024-02-17T12:14:31.272Z,11.93
2024-02-17T12:19:36.564Z,12.27
2024-02-17T12:24:39.952Z,10.90
2024-02-17T12:29:52.577Z,10.17
2024-02-17T12:34:57.680Z,10.30
2024-02-17T12:40:00.925Z,10.67
2024-02-17T12:45:05.142Z,9.77
2024-02-17T12:50:19.141Z,9.27
2024-02-17T12:55:23.360Z,10.30
2024-02-17T13:00:26.538Z,10.53
2024-02-17T13:05:31.157Z,11.30
2024-02-17T13:10:34.927Z,11.13
2024-02-17T13:15:38.155Z,12.03
2024-02-17T13:20:42.861Z,11.47
2024-02-17T13:25:46.070Z,10.17
2024-02-17T13:30:49.350Z,10.83
2024-02-17T13:35:54.170Z,11.10
2024-02-17T13:40:57.866Z,11.70
2024-02-17T13:46:01.518Z,11.57
2024-02-17T13:51:06.829Z,11.00
2024-02-17T13:56:10.261Z,10.73
2024-02-17T14:01:14.952Z,10.50
2024-02-17T14:06:20.970Z,10.10
2024-02-17T14:11:24.666Z,10.13
2024-02-17T14:16:28.053Z,10.23
2024-02-17T14:21:33.273Z,9.43
2024-02-17T14:26:36.545Z,9.73
2024-02-17T14:31:43.134Z,10.53
2024-02-17T14:36:47.954Z,10.23
2024-02-17T14:41:51.088Z,10.70
2024-02-17T14:46:54.299Z,10.03
2024-02-17T14:52:00.375Z,10.60
2024-02-17T14:57:04.144Z,10.37
2024-02-17T15:02:08.107Z,9.93
2024-02-17T15:07:12.870Z,11.20
2024-02-17T15:12:16.696Z,10.43
2024-02-17T15:17:20.359Z,9.73
2024-02-17T15:22:25.512Z,8.67
2024-02-17T15:27:28.824Z,9.10
2024-02-17T15:32:32.302Z,8.57
2024-02-17T15:37:37.122Z,8.27
2024-02-17T15:42:40.385Z,8.07
2024-02-17T15:47:44.104Z,8.13
2024-02-17T15:52:48.710Z,7.10
2024-02-17T15:57:53.972Z,7.20
2024-02-17T16:02:57.971Z,7.40
2024-02-17T16:08:04.206Z,6.57
2024-02-17T16:13:07.608Z,6.50
2024-02-17T16:18:10.838Z,7.20
2024-02-17T16:23:17.749Z,7.63
2024-02-17T16:28:21.005Z,8.37
2024-02-17T16:33:25.757Z,8.83
2024-02-17T16:38:30.783Z,9.87
2024-02-17T16:43:34.062Z,10.57
2024-02-17T16:48:37.659Z,10.97
2024-02-17T16:53:43.455Z,9.50
2024-02-17T16:58:46.665Z,10.23
2024-02-17T17:03:50.050Z,10.27
2024-02-17T17:08:54.712Z,10.23
2024-02-17T17:13:58.143Z,9.77
2024-02-17T17:19:01.631Z,9.63
2024-02-17T17:24:06.914Z,9.73
2024-02-17T17:29:10.165Z,9.33
2024-02-17T17:34:13.578Z,9.77
2024-02-17T17:39:18.556Z,8.87
2024-02-17T17:44:21.909Z,9.53
2024-02-17T17:49:25.379Z,9.30
2024-02-17T17:54:30.307Z,9.43
2024-02-17T17:59:35.505Z,9.10
2024-02-17T18:04:39.212Z,9.03
2024-02-17T18:09:44.401Z,9.07
2024-02-17T18:14:47.759Z,8.57
2024-02-17T18:19:53.714Z,9.37
2024-02-17T18:24:58.855Z,8.50
2024-02-17T18:30:02.342Z,8.43
2024-02-17T18:35:07.170Z,9.57
2024-02-17T18:40:12.668Z,9.10
2024-02-17T18:45:16.464Z,9.30
2024-02-17T18:50:19.753Z,9.67
2024-02-17T18:55:24.697Z,9.63
2024-02-17T19:00:28.261Z,11.50
2024-02-17T19:05:32.520Z,14.13
2024-02-17T19:10:37.279Z,12.53
2024-02-17T19:15:40.721Z,10.20
2024-02-17T19:20:45.305Z,9.27
2024-02-17T19:25:50.565Z,10.07
2024-02-17T19:30:53.967Z,10.17
2024-02-17T19:35:57.747Z,9.60
2024-02-17T19:41:02.908Z,9.60
2024-02-17T19:46:06.297Z,9.57
2024-02-17T19:51:09.529Z,10.00
2024-02-17T19:56:15.074Z,10.10
2024-02-17T20:01:22.581Z,10.50
2024-02-17T20:06:26.576Z,13.80
2024-02-17T20:11:31.577Z,12.97
2024-02-17T20:16:34.717Z,12.10
2024-02-17T20:21:39.824Z,12.10
2024-02-17T20:26:44.394Z,11.20
2024-02-17T20:31:47.609Z,10.50
2024-02-17T20:36:52.693Z,11.10
2024-02-17T20:41:57.345Z,11.63
2024-02-17T20:47:00.823Z,11.27
2024-02-17T20:52:04.519Z,12.07
2024-02-17T20:57:10.954Z,12.50
2024-02-17T21:02:14.549Z,12.53
2024-02-17T21:07:17.830Z,11.50
2024-02-17T21:12:22.543Z,12.00
2024-02-17T21:17:26.183Z,11.70
2024-02-17T21:22:29.687Z,14.13
2024-02-17T21:27:34.453Z,14.23
2024-02-17T21:32:37.898Z,14.70
2024-02-17T21:37:41.330Z,14.60
2024-02-17T21:42:45.841Z,15.90
2024-02-17T21:47:49.081Z,14.70
2024-02-17T21:52:52.298Z,13.93
2024-02-17T21:57:57.031Z,13.77
2024-02-17T22:03:00.207Z,13.63
2024-02-17T22:08:03.378Z,13.17
2024-02-17T22:13:07.908Z,14.50
2024-02-17T22:18:11.092Z,14.10
2024-02-17T22:23:14.252Z,14.57
2024-02-17T22:28:18.731Z,14.13
2024-02-17T22:33:21.977Z,14.17
2024-02-17T22:38:25.088Z,13.90
2024-02-17T22:43:29.566Z,14.33
2024-02-17T22:48:33.155Z,16.13
2024-02-17T22:53:36.406Z,13.57
2024-02-17T22:58:40.830Z,13.67
2024-02-17T23:03:44.093Z,13.50
2024-02-17T23:08:47.257Z,13.17
2024-02-17T23:13:51.734Z,14.80
2024-02-17T23:18:55.469Z,14.87
2024-02-17T23:23:58.713Z,14.80
2024-02-17T23:29:03.221Z,14.27
2024-02-17T23:34:06.447Z,13.60
2024-02-17T23:39:09.712Z,19.27
2024-02-17T23:44:14.261Z,18.73
2024-02-17T23:49:17.521Z,17.97
2024-02-17T23:54:21.268Z,15.50
2024-02-17T23:59:25.930Z,15.57
